Time;durP1;ratioP1;P1;durP2;ratioP2;P2;SDS_P1;SDS_P2;PMS_P1;PMS_P2;Temp;Humidity;BMP_temperature;BMP_pressure;BME280_temperature;BME280_humidity;BME280_pressure;Samples;Min_cycle;Max_cycle;Signal;HPM_P1;HPM_P2
2022/10/10 00:00:33;;;;;;;7.50;5.50;;;;;;;15.72;59.48;97547.66;5052670;28;20461;-74
2022/10/10 00:02:58;;;;;;;6.93;5.83;;;;;;;15.74;59.46;97538.56;5050164;28;20206;-72
2022/10/10 00:05:24;;;;;;;11.47;5.90;;;;;;;15.75;59.50;97534.91;5052128;28;20189;-74
2022/10/10 00:07:49;;;;;;;7.87;5.90;;;;;;;15.77;59.38;97543.47;5051666;28;20266;-74
2022/10/10 00:10:15;;;;;;;9.40;5.90;;;;;;;15.80;59.58;97543.13;5052421;28;20183;-74
2022/10/10 00:12:40;;;;;;;7.77;6.00;;;;;;;15.83;59.86;97536.66;5047129;28;20702;-74
2022/10/10 00:15:06;;;;;;;6.43;5.83;;;;;;;15.86;59.58;97530.25;5047879;28;20538;-72
2022/10/10 00:17:32;;;;;;;6.83;5.43;;;;;;;15.86;59.56;97536.34;5042890;28;20179;-73
2022/10/10 00:19:57;;;;;;;6.97;5.73;;;;;;;15.85;59.59;97528.59;5051605;28;20535;-74
2022/10/10 00:22:23;;;;;;;9.70;6.83;;;;;;;15.88;59.72;97528.25;5035483;28;20253;-74
2022/10/10 00:24:48;;;;;;;8.93;5.87;;;;;;;15.91;59.53;97522.59;5052773;28;20570;-73
2022/10/10 00:27:14;;;;;;;6.37;5.77;;;;;;;15.91;59.67;97528.72;5046779;28;20326;-73
2022/10/10 00:29:39;;;;;;;7.97;5.43;;;;;;;15.91;59.16;97527.88;5044913;28;20262;-73
2022/10/10 00:32:04;;;;;;;8.07;5.83;;;;;;;15.89;59.24;97514.84;5051609;28;20291;-75
2022/10/10 00:34:30;;;;;;;8.60;6.03;;;;;;;15.85;59.00;97528.59;5050464;28;20282;-74
2022/10/10 00:36:55;;;;;;;6.53;5.47;;;;;;;15.78;59.29;97525.81;5047209;28;20188;-74
2022/10/10 00:39:21;;;;;;;10.60;5.80;;;;;;;15.77;59.28;97532.91;5041853;28;20210;-74
2022/10/10 00:41:46;;;;;;;6.33;5.00;;;;;;;15.80;59.48;97527.28;5039899;28;20224;-74
2022/10/10 00:44:13;;;;;;;9.03;5.80;;;;;;;15.80;59.55;97524.63;5049349;28;20191;-74
2022/10/10 00:46:39;;;;;;;7.27;6.03;;;;;;;15.85;59.57;97528.59;5050716;28;20245;-74
2022/10/10 00:49:10;;;;;;;9.13;5.57;;;;;;;15.86;59.68;97514.41;5051432;28;20422;-73
2022/10/10 00:51:35;;;;;;;8.70;6.23;;;;;;;15.85;59.65;97518.84;5049297;28;20697;-73
2022/10/10 00:54:05;;;;;;;9.60;6.30;;;;;;;15.79;59.65;97516.91;5051213;28;20430;-72
2022/10/10 00:56:46;;;;;;;8.93;5.80;;;;;;;15.78;59.86;97523.19;5032628;28;20183;-73
2022/10/10 00:59:13;;;;;;;9.00;6.20;;;;;;;15.78;59.90;97517.91;5038749;28;20457;-74
2022/10/10 01:01:41;;;;;;;9.27;6.00;;;;;;;15.78;59.95;97508.13;5050099;28;20449;-74
2022/10/10 01:04:34;;;;;;;7.77;5.80;;;;;;;15.75;60.21;97508.47;5051414;28;20475;-73
2022/10/10 01:07:01;;;;;;;7.37;6.10;;;;;;;15.73;60.39;97507.84;5050428;28;20437;-73
2022/10/10 01:09:27;;;;;;;7.10;6.17;;;;;;;15.72;60.48;97506.22;5041115;28;20414;-74
2022/10/10 01:12:19;;;;;;;6.23;5.60;;;;;;;15.74;60.83;97506.88;5049626;28;20445;-74
2022/10/10 01:15:00;;;;;;;8.33;6.27;;;;;;;15.76;60.67;97499.56;5049392;28;20432;-74
2022/10/10 01:17:29;;;;;;;10.47;6.10;;;;;;;15.80;60.53;97498.22;5050074;28;20912;-73
2022/10/10 01:20:27;;;;;;;10.93;6.30;;;;;;;15.84;60.61;97505.78;5049914;28;20528;-73
2022/10/10 01:23:01;;;;;;;9.87;6.50;;;;;;;15.82;60.76;97501.50;5039827;28;20441;-74
2022/10/10 01:25:45;;;;;;;10.90;7.60;;;;;;;15.81;60.61;97499.03;5051151;28;20435;-74
2022/10/10 01:28:32;;;;;;;24.50;16.17;;;;;;;15.85;60.61;97488.97;5038133;28;20501;-74
2022/10/10 01:30:58;;;;;;;17.63;12.83;;;;;;;15.79;60.86;97493.91;5050493;28;20413;-74
2022/10/10 01:33:31;;;;;;;12.00;7.77;;;;;;;15.81;60.80;97481.34;5044231;28;20490;-74
2022/10/10 01:36:08;;;;;;;7.37;6.50;;;;;;;15.79;60.81;97487.81;5040416;28;20529;-73
2022/10/10 01:38:40;;;;;;;10.03;6.80;;;;;;;15.82;60.81;97485.63;5046837;28;20464;-74
2022/10/10 01:41:16;;;;;;;7.77;6.20;;;;;;;15.86;60.73;97487.97;5043250;28;20430;-73
2022/10/10 01:43:42;;;;;;;7.17;6.30;;;;;;;15.85;60.78;97487.13;5049609;28;20961;-74
2022/10/10 01:46:12;;;;;;;8.13;6.20;;;;;;;15.80;61.10;97482.34;5042188;28;20425;-74
2022/10/10 01:48:39;;;;;;;6.40;5.70;;;;;;;15.82;61.19;97483.00;5048710;28;20182;-74
2022/10/10 01:51:19;;;;;;;8.70;6.60;;;;;;;15.81;61.20;97486.63;5048990;28;20445;-73
2022/10/10 01:54:15;;;;;;;7.10;6.20;;;;;;;15.83;61.19;97478.53;5050459;28;20426;-74
2022/10/10 01:56:45;;;;;;;8.30;6.40;;;;;;;15.81;61.38;97480.53;5050148;28;20842;-74
2022/10/10 01:59:20;;;;;;;9.50;6.90;;;;;;;15.81;61.53;97481.34;5030803;28;20565;-74
2022/10/10 02:01:52;;;;;;;10.73;6.70;;;;;;;15.81;61.37;97476.06;5050453;28;21014;-74
2022/10/10 02:04:36;;;;;;;8.20;6.80;;;;;;;15.81;61.52;97481.34;5049036;28;20933;-73
2022/10/10 02:07:12;;;;;;;9.40;7.20;;;;;;;15.79;61.86;97482.53;5022420;28;20429;-72
2022/10/10 02:09:39;;;;;;;11.00;6.90;;;;;;;15.79;61.93;97485.19;5032968;28;20453;-75
2022/10/10 02:12:06;;;;;;;12.23;6.60;;;;;;;15.77;61.82;97482.69;5031749;28;20460;-73
2022/10/10 02:14:36;;;;;;;9.33;6.80;;;;;;;15.82;61.73;97475.06;5042391;28;20994;-74
2022/10/10 02:17:03;;;;;;;9.37;6.60;;;;;;;15.81;61.69;97476.06;5048519;28;21079;-72
2022/10/10 02:19:29;;;;;;;6.20;5.50;;;;;;;15.81;61.54;97481.34;5048950;28;20464;-74
2022/10/10 02:21:55;;;;;;;9.80;6.20;;;;;;;15.79;61.34;97478.06;5042175;28;20441;-74
2022/10/10 02:24:22;;;;;;;9.90;5.70;;;;;;;15.78;61.26;97478.25;5048520;28;20179;-73
2022/10/10 02:26:53;;;;;;;10.63;6.60;;;;;;;15.77;61.47;97479.25;5047752;28;20236;-74
2022/10/10 02:29:35;;;;;;;6.63;5.47;;;;;;;15.74;61.68;97472.50;5029573;28;20429;-74
2022/10/10 02:32:11;;;;;;;8.83;5.97;;;;;;;15.75;61.62;97482.06;5049355;28;20445;-73
2022/10/10 02:34:40;;;;;;;8.10;6.43;;;;;;;15.74;61.49;97482.25;5050162;28;20433;-74
2022/10/10 02:37:08;;;;;;;7.43;6.07;;;;;;;15.74;61.73;97474.31;5042668;28;20425;-74
2022/10/10 02:39:36;;;;;;;7.17;6.47;;;;;;;15.71;61.74;97483.44;5049333;28;20461;-74
2022/10/10 02:42:04;;;;;;;6.00;5.50;;;;;;;15.67;61.94;97474.22;5043483;28;20448;-72
2022/10/10 02:44:30;;;;;;;9.60;6.00;;;;;;;15.69;61.88;97469.56;5048928;28;20432;-74
2022/10/10 02:46:55;;;;;;;9.50;5.83;;;;;;;15.71;61.43;97475.50;5047191;28;20931;-74
2022/10/10 02:49:29;;;;;;;7.83;5.67;;;;;;;15.71;61.63;97483.44;5049945;28;20418;-74
2022/10/10 02:51:54;;;;;;;6.73;5.93;;;;;;;15.73;61.55;97476.16;5049718;28;20219;-74
2022/10/10 02:54:20;;;;;;;7.10;5.60;;;;;;;15.74;61.45;97474.31;5046492;28;20858;-74
2022/10/10 02:56:45;;;;;;;10.23;6.47;;;;;;;15.71;61.71;97474.66;5037482;28;20279;-73
2022/10/10 02:59:11;;;;;;;7.97;5.73;;;;;;;15.65;61.82;97474.41;5037124;28;20256;-73
2022/10/10 03:01:36;;;;;;;7.20;6.43;;;;;;;15.70;61.48;97479.16;5043516;28;20710;-73
2022/10/10 03:04:02;;;;;;;10.23;6.23;;;;;;;15.69;61.49;97477.50;5053584;28;20183;-74
2022/10/10 03:06:27;;;;;;;8.73;6.30;;;;;;;15.62;61.95;97476.59;5051316;28;20187;-73
2022/10/10 03:08:53;;;;;;;6.67;6.07;;;;;;;15.64;61.65;97479.84;5053655;28;20690;-73
2022/10/10 03:11:18;;;;;;;6.20;5.60;;;;;;;15.65;61.44;97482.31;5045235;28;20563;-74
2022/10/10 03:13:44;;;;;;;10.60;6.33;;;;;;;15.65;61.61;97482.31;5053560;28;20194;-74
2022/10/10 03:16:10;;;;;;;7.40;5.90;;;;;;;15.59;61.77;97482.22;5033998;28;20679;-71
2022/10/10 03:18:36;;;;;;;8.63;6.47;;;;;;;15.60;62.05;97483.84;5012863;28;20219;-74
2022/10/10 03:21:02;;;;;;;6.73;5.73;;;;;;;15.60;61.82;97481.22;5041800;28;20206;-73
2022/10/10 03:23:27;;;;;;;7.30;6.17;;;;;;;15.59;61.68;97484.84;5051260;28;20229;-74
2022/10/10 03:25:53;;;;;;;7.13;5.90;;;;;;;15.55;61.98;97476.47;5022100;28;20435;-73
2022/10/10 03:28:18;;;;;;;8.63;6.03;;;;;;;15.57;61.83;97478.91;5013289;28;20192;-74
2022/10/10 03:30:45;;;;;;;6.10;5.47;;;;;;;15.59;61.93;97472.44;5029259;28;20180;-74
2022/10/10 03:33:10;;;;;;;6.53;5.90;;;;;;;15.59;61.77;97472.44;5024007;28;20266;-74
2022/10/10 03:35:36;;;;;;;7.90;6.27;;;;;;;15.57;61.87;97471.81;5033422;28;20434;-73
2022/10/10 03:38:02;;;;;;;10.93;5.23;;;;;;;15.56;61.87;97477.28;5032378;28;20211;-74
2022/10/10 03:40:28;;;;;;;6.80;5.97;;;;;;;15.58;61.87;97473.44;5033552;28;20437;-73
2022/10/10 03:42:53;;;;;;;6.83;5.90;;;;;;;15.58;61.94;97470.00;5047049;28;20439;-74
2022/10/10 03:45:19;;;;;;;6.87;6.17;;;;;;;15.61;62.19;97469.66;5012976;28;20604;-73
2022/10/10 03:47:44;;;;;;;6.67;5.73;;;;;;;15.64;61.90;97471.91;5017873;28;20183;-73
2022/10/10 03:50:10;;;;;;;9.13;5.80;;;;;;;15.65;61.78;97469.13;5035928;28;20186;-73
2022/10/10 03:52:36;;;;;;;7.63;5.70;;;;;;;15.66;61.75;97468.13;5052426;28;20195;-73
2022/10/10 03:55:01;;;;;;;6.17;5.37;;;;;;;15.60;61.90;97468.81;5052440;28;20179;-74
2022/10/10 03:57:26;;;;;;;6.10;5.30;;;;;;;15.62;62.06;97472.09;5040778;28;20175;-74
2022/10/10 03:59:52;;;;;;;6.97;6.23;;;;;;;15.58;62.40;97464.72;5038003;28;20227;-73
2022/10/10 04:02:17;;;;;;;12.27;6.63;;;;;;;15.57;62.48;97471.00;5051948;28;20207;-73
2022/10/10 04:04:43;;;;;;;9.40;6.20;;;;;;;15.56;62.61;97462.25;5051982;28;20215;-73
2022/10/10 04:07:08;;;;;;;7.17;6.10;;;;;;;15.60;62.71;97470.66;5042159;28;20267;-73
2022/10/10 04:09:34;;;;;;;9.70;6.67;;;;;;;15.61;62.61;97469.66;5044033;28;20258;-74
2022/10/10 04:11:59;;;;;;;8.60;5.87;;;;;;;15.57;62.80;97469.16;5051809;28;20643;-72
2022/10/10 04:14:25;;;;;;;10.93;5.70;;;;;;;15.60;62.61;97468.00;5048616;28;20180;-74
2022/10/10 04:16:50;;;;;;;8.90;6.93;;;;;;;15.60;62.53;97474.09;5031552;28;20184;-75
2022/10/10 04:19:16;;;;;;;10.07;5.53;;;;;;;15.56;62.69;97472.84;5028351;28;20691;-74
2022/10/10 04:21:42;;;;;;;9.20;6.60;;;;;;;15.59;62.93;97472.44;5051409;28;20211;-75
2022/10/10 04:24:07;;;;;;;9.73;6.23;;;;;;;15.59;62.99;97472.44;5043988;28;20431;-74
2022/10/10 04:26:33;;;;;;;17.40;7.03;;;;;;;15.58;62.90;97464.72;5043409;28;20179;-74
2022/10/10 04:28:58;;;;;;;8.70;6.67;;;;;;;15.54;62.83;97466.91;5051587;28;20195;-74
2022/10/10 04:31:24;;;;;;;7.40;6.17;;;;;;;15.52;63.09;97468.91;5051604;28;20187;-74
2022/10/10 04:33:49;;;;;;;9.80;6.20;;;;;;;15.52;62.96;97467.06;5042728;28;20249;-74
2022/10/10 04:36:14;;;;;;;6.20;5.60;;;;;;;15.51;62.99;97467.25;5049188;28;20553;-73
2022/10/10 04:38:40;;;;;;;6.53;5.50;;;;;;;15.47;62.98;97463.31;5048394;28;20245;-74
2022/10/10 04:41:05;;;;;;;10.80;5.77;;;;;;;15.47;63.35;97458.88;5045162;28;20722;-73
2022/10/10 04:43:31;;;;;;;7.20;6.40;;;;;;;15.49;63.17;97472.72;5045563;28;20759;-74
2022/10/10 04:45:59;;;;;;;9.30;5.67;;;;;;;15.40;63.11;97460.56;5046585;28;20191;-74
2022/10/10 04:48:24;;;;;;;8.70;6.10;;;;;;;15.42;63.46;97458.56;5039849;28;20592;-72
2022/10/10 04:50:54;;;;;;;8.30;5.50;;;;;;;15.43;63.61;97460.22;5040798;28;20453;-74
2022/10/10 04:53:20;;;;;;;6.30;5.57;;;;;;;15.45;63.44;97454.72;5041002;28;20242;-75
2022/10/10 04:55:45;;;;;;;12.20;5.87;;;;;;;15.45;63.36;97460.00;5040155;28;20423;-74
2022/10/10 04:58:11;;;;;;;8.30;5.90;;;;;;;15.43;63.47;97459.41;5045222;28;20286;-74
2022/10/10 05:00:38;;;;;;;6.63;5.30;;;;;;;15.41;63.77;97456.91;5042483;28;20184;-74
2022/10/10 05:03:03;;;;;;;7.40;5.37;;;;;;;15.43;63.98;97460.22;5045049;28;20203;-75
2022/10/10 05:05:29;;;;;;;8.30;5.70;;;;;;;15.43;63.82;97462.03;5042770;28;20443;-73
2022/10/10 05:07:54;;;;;;;7.90;5.53;;;;;;;15.34;64.44;97459.44;5050215;28;20191;-75
2022/10/10 05:10:19;;;;;;;9.07;6.43;;;;;;;15.35;64.61;97449.72;5050404;28;20702;-72
2022/10/10 05:12:45;;;;;;;7.83;5.97;;;;;;;15.43;64.57;97462.84;5040242;28;20303;-74
2022/10/10 05:15:10;;;;;;;10.20;6.17;;;;;;;15.43;64.25;97469.97;5047431;28;20681;-72
2022/10/10 05:17:36;;;;;;;7.37;5.43;;;;;;;15.43;64.50;97473.41;5030696;28;20609;-75
2022/10/10 05:20:01;;;;;;;6.63;5.77;;;;;;;15.44;64.57;97463.66;5046640;28;20199;-74
2022/10/10 05:22:27;;;;;;;8.67;5.57;;;;;;;15.47;64.50;97468.59;5042288;28;20206;-74
2022/10/10 05:24:52;;;;;;;5.97;5.30;;;;;;;15.51;64.51;97469.88;5044597;28;20775;-74
2022/10/10 05:27:18;;;;;;;6.60;5.80;;;;;;;15.53;64.52;97473.19;5046720;28;20913;-75
2022/10/10 05:29:43;;;;;;;7.23;6.00;;;;;;;15.53;64.56;97473.19;5050703;28;20722;-74
2022/10/10 05:32:09;;;;;;;7.40;5.87;;;;;;;15.56;64.81;97467.53;5050209;28;20741;-75
2022/10/10 05:34:34;;;;;;;13.40;6.90;;;;;;;15.59;64.60;97474.28;5050577;28;20328;-74
2022/10/10 05:37:00;;;;;;;8.43;6.80;;;;;;;15.63;64.75;97478.19;5048234;28;20236;-74
2022/10/10 05:39:25;;;;;;;7.30;6.50;;;;;;;15.64;64.25;97474.56;5049990;28;20218;-74
2022/10/10 05:41:51;;;;;;;12.37;6.47;;;;;;;15.57;64.30;97479.72;5048378;28;20218;-75
2022/10/10 05:44:16;;;;;;;8.20;5.90;;;;;;;15.51;64.43;97486.53;5050820;28;20273;-74
2022/10/10 05:46:41;;;;;;;7.67;6.27;;;;;;;15.59;64.75;97498.88;5042095;28;20275;-73
2022/10/10 05:49:07;;;;;;;6.93;5.53;;;;;;;15.59;64.45;97483.03;5035839;28;20270;-72
2022/10/10 05:51:32;;;;;;;8.97;6.27;;;;;;;15.60;64.75;97481.22;5049946;28;20174;-74
2022/10/10 05:53:59;;;;;;;12.73;6.10;;;;;;;15.61;64.67;97486.31;5050140;28;20528;-73
2022/10/10 05:56:24;;;;;;;8.03;5.90;;;;;;;15.63;64.87;97480.84;5046740;28;20191;-74
2022/10/10 05:58:50;;;;;;;9.83;7.30;;;;;;;15.59;65.04;97482.22;5050789;28;20987;-73
2022/10/10 06:01:16;;;;;;;10.90;7.63;;;;;;;15.57;64.98;97478.91;5050376;28;20563;-74
2022/10/10 06:03:41;;;;;;;12.23;7.50;;;;;;;15.57;64.90;97479.72;5050638;28;20214;-75
2022/10/10 06:06:07;;;;;;;10.07;7.13;;;;;;;15.59;64.97;97488.31;5050009;28;20776;-73
2022/10/10 06:08:33;;;;;;;8.07;6.50;;;;;;;15.60;64.76;97483.84;5049528;28;20258;-74
2022/10/10 06:11:04;;;;;;;10.07;7.20;;;;;;;15.66;64.90;97491.06;5049396;28;20513;-73
2022/10/10 06:13:30;;;;;;;11.60;6.87;;;;;;;15.71;64.76;97485.22;5022720;28;20210;-73
2022/10/10 06:15:56;;;;;;;10.90;7.00;;;;;;;15.74;65.02;97490.16;5046199;28;20425;-75
2022/10/10 06:18:22;;;;;;;12.27;6.30;;;;;;;15.77;64.94;97495.09;5049500;28;20206;-73
2022/10/10 06:20:47;;;;;;;19.00;6.50;;;;;;;15.82;65.04;97490.09;5044762;28;20433;-74
2022/10/10 06:23:13;;;;;;;8.73;7.00;;;;;;;15.87;64.95;97494.91;5039611;28;20211;-74
2022/10/10 06:25:38;;;;;;;13.57;8.33;;;;;;;15.92;64.99;97497.81;5041472;28;20221;-75
2022/10/10 06:28:04;;;;;;;10.67;8.00;;;;;;;15.94;65.04;97511.66;5048479;28;20654;-73
2022/10/10 06:30:30;;;;;;;14.50;8.33;;;;;;;15.96;65.05;97507.84;5044665;28;20534;-73
2022/10/10 06:32:57;;;;;;;12.13;7.53;;;;;;;16.02;65.13;97505.50;5050384;28;20311;-73
2022/10/10 06:35:22;;;;;;;10.00;7.10;;;;;;;16.02;65.00;97508.13;5051599;28;20206;-73
2022/10/10 06:37:48;;;;;;;18.67;8.57;;;;;;;16.05;65.19;97516.53;5051224;28;20532;-74
2022/10/10 06:40:13;;;;;;;11.33;9.20;;;;;;;16.02;65.21;97516.88;5051096;28;20190;-75
2022/10/10 06:42:39;;;;;;;13.57;7.77;;;;;;;16.05;65.30;97519.16;5047871;28;20660;-74
2022/10/10 06:45:04;;;;;;;11.50;7.47;;;;;;;16.05;65.27;97524.44;5049292;28;20194;-72
2022/10/10 06:47:30;;;;;;;11.43;7.03;;;;;;;16.07;65.08;97524.25;5053132;28;20242;-74
2022/10/10 06:49:55;;;;;;;11.93;8.07;;;;;;;16.12;65.21;97517.47;5054130;28;20183;-74
2022/10/10 06:52:21;;;;;;;15.03;8.50;;;;;;;16.16;65.14;97525.00;5051432;28;20286;-75
2022/10/10 06:54:47;;;;;;;10.60;8.13;;;;;;;16.22;65.27;97513.72;5041741;28;20198;-74
2022/10/10 06:57:12;;;;;;;14.47;8.03;;;;;;;16.24;65.25;97523.09;5041835;28;20437;-74
2022/10/10 06:59:38;;;;;;;15.90;8.70;;;;;;;16.27;65.39;97529.84;5053316;28;20728;-73
2022/10/10 07:02:03;;;;;;;9.20;7.10;;;;;;;16.33;65.52;97526.50;5044548;28;20294;-73
2022/10/10 07:04:29;;;;;;;10.60;7.53;;;;;;;16.34;65.33;97529.94;5036982;28;20536;-75
2022/10/10 07:06:54;;;;;;;16.60;8.13;;;;;;;16.37;65.58;97538.38;5039125;28;20187;-72
2022/10/10 07:09:20;;;;;;;15.60;8.10;;;;;;;16.43;65.24;97542.91;5053001;28;20656;-73
2022/10/10 07:11:45;;;;;;;11.70;7.80;;;;;;;16.48;65.37;97546.84;5048398;28;20561;-75
2022/10/10 07:14:11;;;;;;;10.10;7.30;;;;;;;16.52;65.65;97535.72;5050993;28;20248;-74
2022/10/10 07:16:37;;;;;;;19.77;7.87;;;;;;;16.59;65.70;97541.09;5052853;28;20183;-74
2022/10/10 07:19:02;;;;;;;18.60;7.77;;;;;;;16.68;65.62;97547.13;5052786;28;20489;-72
2022/10/10 07:21:28;;;;;;;12.50;8.00;;;;;;;16.73;65.68;97548.22;5044116;28;20186;-74
2022/10/10 07:23:53;;;;;;;11.90;7.77;;;;;;;16.80;65.57;97544.81;5053057;28;20194;-74
2022/10/10 07:26:21;;;;;;;13.77;6.30;;;;;;;16.86;65.38;97549.41;5050144;28;20635;-73
2022/10/10 07:28:47;;;;;;;12.70;6.93;;;;;;;16.91;65.11;97548.84;5053242;28;20183;-74
2022/10/10 07:31:14;;;;;;;9.77;6.83;;;;;;;16.95;65.35;97545.69;5052936;28;20864;-74
2022/10/10 07:33:44;;;;;;;15.40;6.80;;;;;;;17.02;65.15;97551.06;5053212;28;20878;-74
2022/10/10 07:36:10;;;;;;;11.90;6.40;;;;;;;17.07;65.04;97561.09;5052005;28;20983;-74
2022/10/10 07:38:36;;;;;;;8.17;5.83;;;;;;;17.12;65.16;97554.22;5042951;28;20453;-73
2022/10/10 07:41:07;;;;;;;6.40;5.47;;;;;;;17.15;64.78;97560.97;5046744;28;20197;-73
2022/10/10 07:43:32;;;;;;;8.40;5.40;;;;;;;17.16;64.43;97562.59;5043966;28;20878;-74
2022/10/10 07:45:57;;;;;;;6.73;5.03;;;;;;;17.21;64.45;97570.84;5052787;28;20517;-72
2022/10/10 07:48:23;;;;;;;6.63;4.50;;;;;;;17.26;64.42;97575.56;5049364;28;20827;-75
2022/10/10 07:50:48;;;;;;;6.03;5.43;;;;;;;17.29;63.93;97568.06;5047573;28;20178;-74
2022/10/10 07:53:14;;;;;;;9.07;6.00;;;;;;;17.31;63.98;97575.84;5052345;28;20210;-74
2022/10/10 07:55:40;;;;;;;8.80;5.87;;;;;;;17.31;63.74;97568.69;5039611;28;20179;-74
2022/10/10 07:58:06;;;;;;;6.37;4.90;;;;;;;17.39;63.56;97573.06;5051740;28;20207;-74
2022/10/10 08:00:34;;;;;;;9.07;4.57;;;;;;;17.43;63.46;97576.16;5052226;28;21170;-73
2022/10/10 08:03:00;;;;;;;6.50;4.40;;;;;;;17.47;63.48;97570.28;5052714;28;20210;-72
2022/10/10 08:05:25;;;;;;;10.33;4.90;;;;;;;17.48;63.36;97576.44;5052411;28;20416;-72
2022/10/10 08:07:51;;;;;;;6.47;4.80;;;;;;;17.55;63.45;97582.59;5050617;28;20191;-73
2022/10/10 08:10:16;;;;;;;5.63;4.50;;;;;;;17.59;63.26;97581.25;5052447;28;20183;-74
2022/10/10 08:12:43;;;;;;;4.83;4.03;;;;;;;17.67;63.00;97580.28;5052024;28;20215;-72
2022/10/10 08:15:08;;;;;;;8.27;4.40;;;;;;;17.71;63.07;97588.69;5050897;28;20183;-74
2022/10/10 08:17:34;;;;;;;6.80;4.43;;;;;;;17.76;63.11;97584.47;5051187;28;20429;-74
2022/10/10 08:19:59;;;;;;;5.10;4.13;;;;;;;17.81;63.19;97589.19;5052878;28;20705;-74
2022/10/10 08:22:25;;;;;;;7.73;4.33;;;;;;;17.83;62.75;97591.66;5044130;28;20535;-73
2022/10/10 08:24:50;;;;;;;12.20;4.10;;;;;;;17.86;62.76;97576.19;5052152;28;20191;-73
2022/10/10 08:27:17;;;;;;;6.53;3.50;;;;;;;17.91;62.65;97581.72;5049136;28;20210;-72
2022/10/10 08:29:43;;;;;;;6.83;4.90;;;;;;;17.91;62.56;97581.72;5046599;28;20709;-74
2022/10/10 08:32:08;;;;;;;5.57;3.93;;;;;;;17.99;62.45;97572.06;5032664;28;20553;-74
2022/10/10 08:34:34;;;;;;;9.53;3.90;;;;;;;17.89;62.39;97578.47;5046209;28;20324;-74
2022/10/10 08:36:59;;;;;;;5.50;4.37;;;;;;;18.07;62.13;97569.25;5049861;28;20211;-74
2022/10/10 08:39:24;;;;;;;5.30;4.37;;;;;;;18.15;61.88;97569.09;5050344;28;20214;-75
2022/10/10 08:41:53;;;;;;;10.17;4.03;;;;;;;18.25;61.76;97566.13;5045812;28;20482;-73
2022/10/10 08:44:20;;;;;;;4.83;3.90;;;;;;;18.32;61.65;97569.69;5051585;28;20306;-73
2022/10/10 08:46:51;;;;;;;5.57;3.80;;;;;;;18.42;61.69;97571.97;5049646;28;20434;-74
2022/10/10 08:49:21;;;;;;;8.87;4.10;;;;;;;18.53;61.63;97574.06;5044904;28;20788;-74
2022/10/10 08:51:53;;;;;;;6.37;3.70;;;;;;;18.66;61.43;97567.22;5043589;28;20446;-74
2022/10/10 08:54:21;;;;;;;4.10;3.70;;;;;;;18.80;61.47;97566.28;5050881;28;20487;-74
2022/10/10 08:56:47;;;;;;;4.00;3.30;;;;;;;18.92;61.04;97566.56;5047839;28;20818;-75
2022/10/10 08:59:22;;;;;;;7.30;4.13;;;;;;;19.08;61.00;97564.63;5049929;28;20507;-73
2022/10/10 09:01:49;;;;;;;6.13;3.50;;;;;;;19.26;60.92;97564.06;5050289;28;20441;-74
2022/10/10 09:04:16;;;;;;;5.13;3.40;;;;;;;19.41;60.55;97559.38;5050057;28;20487;-74
2022/10/10 09:07:24;;;;;;;5.57;3.37;;;;;;;19.58;60.06;97565.19;5049497;28;20457;-74
2022/10/10 09:10:23;;;;;;;4.50;3.10;;;;;;;19.75;59.66;97560.28;5016944;28;20517;-74
2022/10/10 09:13:24;;;;;;;3.87;2.90;;;;;;;19.90;58.71;97569.97;5038584;28;20810;-74
2022/10/10 09:15:58;;;;;;;5.13;3.00;;;;;;;20.02;58.56;97576.31;5049853;28;20431;-74
2022/10/10 09:18:47;;;;;;;4.13;2.80;;;;;;;20.12;58.06;97567.91;5048899;28;20453;-74
2022/10/10 09:21:16;;;;;;;8.17;2.60;;;;;;;20.18;57.74;97568.94;5041969;28;20461;-73
2022/10/10 09:24:20;;;;;;;4.77;2.77;;;;;;;20.25;57.50;97569.75;5045679;28;20440;-73
2022/10/10 09:26:52;;;;;;;5.03;2.40;;;;;;;20.35;57.20;97575.47;5031998;28;20433;-75
2022/10/10 09:29:29;;;;;;;5.43;2.40;;;;;;;20.38;56.78;97585.72;5049823;28;20439;-74
2022/10/10 09:32:03;;;;;;;3.43;2.70;;;;;;;20.61;56.13;97579.13;5050093;28;20445;-73
2022/10/10 09:34:38;;;;;;;7.87;2.97;;;;;;;20.85;55.72;97587.50;5049418;28;20472;-73
2022/10/10 09:37:11;;;;;;;5.47;2.70;;;;;;;21.12;54.86;97592.75;5047394;28;20515;-73
2022/10/10 09:39:43;;;;;;;4.73;2.77;;;;;;;21.41;54.44;97593.25;5043830;28;20563;-74
2022/10/10 09:42:17;;;;;;;4.03;2.30;;;;;;;21.42;53.40;97589.56;5044711;28;20437;-74
2022/10/10 09:44:43;;;;;;;3.60;2.60;;;;;;;21.57;53.17;97598.06;5049348;28;20424;-75
2022/10/10 09:47:11;;;;;;;4.50;2.60;;;;;;;21.65;53.07;97590.91;5049988;28;20828;-74
2022/10/10 09:49:37;;;;;;;3.13;2.30;;;;;;;21.73;53.07;97598.63;5049504;28;20262;-74
2022/10/10 09:52:27;;;;;;;3.50;2.40;;;;;;;21.73;53.22;97594.13;5049414;28;20447;-73
2022/10/10 09:55:05;;;;;;;2.50;2.30;;;;;;;21.82;52.86;97593.88;5043677;28;20273;-74
2022/10/10 09:57:35;;;;;;;2.87;2.30;;;;;;;21.83;52.63;97590.97;5042114;28;20421;-75
2022/10/10 10:00:22;;;;;;;4.30;2.47;;;;;;;21.85;52.69;97593.44;5050422;28;20826;-74
2022/10/10 10:03:11;;;;;;;4.17;2.50;;;;;;;21.71;52.75;97582.03;5050228;28;20456;-72
2022/10/10 10:05:38;;;;;;;8.27;2.50;;;;;;;21.78;52.40;97596.16;5050777;28;20414;-75
2022/10/10 10:08:05;;;;;;;3.43;2.20;;;;;;;21.85;52.63;97591.59;5047953;28;21133;-73
2022/10/10 10:10:34;;;;;;;2.40;2.20;;;;;;;21.71;52.77;97596.19;5043653;28;20475;-74
2022/10/10 10:12:59;;;;;;;4.93;2.07;;;;;;;21.82;52.40;97597.34;5053785;28;20449;-74
2022/10/10 10:15:30;;;;;;;7.77;2.73;;;;;;;21.82;52.32;97592.00;5053395;28;20799;-74
2022/10/10 10:18:08;;;;;;;5.80;2.40;;;;;;;21.91;51.92;97592.56;5052265;28;20197;-75
2022/10/10 10:20:36;;;;;;;6.13;2.37;;;;;;;22.01;52.00;97586.75;5050429;28;20407;-75
2022/10/10 10:23:02;;;;;;;7.60;2.77;;;;;;;22.11;51.35;97587.09;5042739;28;20481;-75
2022/10/10 10:25:29;;;;;;;8.50;2.80;;;;;;;22.28;51.38;97583.88;5049387;28;20457;-74
2022/10/10 10:28:24;;;;;;;7.20;2.50;;;;;;;22.50;50.94;97584.31;5048066;28;20480;-75
2022/10/10 10:30:56;;;;;;;8.40;2.47;;;;;;;22.53;50.58;97584.72;5049116;28;20464;-74
2022/10/10 10:33:41;;;;;;;4.07;2.37;;;;;;;22.67;50.60;97584.59;5052810;28;20441;-74
2022/10/10 10:36:33;;;;;;;7.33;2.80;;;;;;;22.81;50.24;97582.56;5052956;28;20766;-75
2022/10/10 10:39:20;;;;;;;6.00;2.43;;;;;;;22.97;49.58;97583.84;5051664;28;20453;-74
2022/10/10 10:41:55;;;;;;;5.50;2.90;;;;;;;23.00;49.00;97589.53;5046694;28;20429;-74
2022/10/10 10:44:27;;;;;;;6.00;2.40;;;;;;;23.03;48.32;97599.00;5032963;28;20453;-74
2022/10/10 10:47:09;;;;;;;3.80;2.03;;;;;;;22.86;48.34;97582.75;5048303;28;20835;-74
2022/10/10 10:49:41;;;;;;;4.10;2.60;;;;;;;22.89;47.75;97590.28;5052286;28;20417;-75
2022/10/10 10:52:35;;;;;;;18.00;2.80;;;;;;;22.95;48.07;97588.56;5043998;28;20438;-75
2022/10/10 10:55:42;;;;;;;6.57;2.90;;;;;;;22.99;47.93;97587.09;5047736;28;20782;-74
2022/10/10 10:58:30;;;;;;;5.50;2.40;;;;;;;23.29;47.37;97591.72;5062027;28;20422;-74
2022/10/10 11:01:05;;;;;;;8.57;2.17;;;;;;;23.71;45.88;97586.41;5054041;28;20464;-74
2022/10/10 11:03:39;;;;;;;8.00;2.43;;;;;;;24.19;45.92;97587.38;5041173;28;20443;-73
2022/10/10 11:06:18;;;;;;;10.20;2.40;;;;;;;24.68;44.68;97589.84;5051569;28;20429;-73
2022/10/10 11:08:49;;;;;;;4.80;2.57;;;;;;;25.08;43.98;97580.25;5051877;28;20433;-74
2022/10/10 11:11:17;;;;;;;5.20;2.50;;;;;;;25.27;43.32;97585.41;5053265;28;20516;-73
2022/10/10 11:13:54;;;;;;;6.70;2.63;;;;;;;25.36;41.87;97586.69;5045201;28;20520;-74
2022/10/10 11:16:44;;;;;;;6.90;2.80;;;;;;;25.64;41.59;97582.41;5051601;28;20421;-74
2022/10/10 11:19:13;;;;;;;9.83;2.60;;;;;;;25.84;40.95;97565.03;5053325;28;20464;-74
2022/10/10 11:21:58;;;;;;;6.73;2.53;;;;;;;26.03;40.79;97568.28;5043350;28;20410;-73
2022/10/10 11:24:39;;;;;;;10.30;2.43;;;;;;;26.29;38.69;97569.53;5051811;28;20432;-76
2022/10/10 11:27:11;;;;;;;11.17;2.20;;;;;;;26.04;38.21;97572.59;5049654;28;20425;-75
2022/10/10 11:30:06;;;;;;;8.50;3.07;;;;;;;26.29;38.74;97568.72;5052315;28;20422;-76
2022/10/10 11:32:35;;;;;;;6.83;2.33;;;;;;;26.65;38.57;97559.28;5049642;28;20433;-74
2022/10/10 11:35:24;;;;;;;8.60;3.00;;;;;;;26.64;38.51;97559.53;5040667;28;20434;-75
2022/10/10 11:37:59;;;;;;;7.83;2.70;;;;;;;26.55;38.73;97550.28;5032437;28;20434;-73
2022/10/10 11:40:36;;;;;;;8.17;2.50;;;;;;;26.60;38.76;97555.72;5051064;28;21040;-75
2022/10/10 11:43:07;;;;;;;7.17;2.63;;;;;;;26.68;38.32;97552.63;5048113;28;20442;-74